Time;durP1;ratioP1;P1;durP2;ratioP2;P2;SDS_P1;SDS_P2;PMS_P1;PMS_P2;Temp;Humidity;BMP_temperature;BMP_pressure;BME280_temperature;BME280_humidity;BME280_pressure;Samples;Min_cycle;Max_cycle;Signal;HPM_P1;HPM_P2
2023/12/16 00:01:05;;;;;;;6.90;1.67;;;7.20;99.90;;;;;;5025085;28;20049;-66
2023/12/16 00:03:31;;;;;;;10.10;1.60;;;7.20;99.90;;;;;;5024166;28;20402;-66
2023/12/16 00:05:57;;;;;;;8.80;1.85;;;7.20;99.90;;;;;;5024465;28;20045;-67
2023/12/16 00:08:22;;;;;;;9.93;1.75;;;7.20;99.90;;;;;;5007227;28;20044;-67
2023/12/16 00:10:48;;;;;;;7.63;1.33;;;7.20;99.90;;;;;;5022550;28;20068;-67
2023/12/16 00:13:14;;;;;;;9.90;1.85;;;7.20;99.90;;;;;;5022322;28;20052;-66
2023/12/16 00:15:39;;;;;;;6.57;1.30;;;7.20;99.90;;;;;;5021312;28;20088;-67
2023/12/16 00:18:05;;;;;;;9.38;2.05;;;7.20;99.90;;;;;;5021399;28;20571;-67
2023/12/16 00:20:31;;;;;;;5.53;1.08;;;7.20;99.90;;;;;;5022490;28;20499;-67
2023/12/16 00:22:56;;;;;;;7.22;1.00;;;7.20;99.90;;;;;;5018531;28;20545;-67
2023/12/16 00:25:22;;;;;;;10.50;1.33;;;7.10;99.90;;;;;;5022863;28;20052;-67
2023/12/16 00:27:48;;;;;;;10.50;2.00;;;7.20;99.90;;;;;;5020324;28;20060;-67
2023/12/16 00:30:13;;;;;;;10.68;1.90;;;7.20;99.90;;;;;;5025395;28;20039;-67
2023/12/16 00:32:39;;;;;;;5.80;1.48;;;7.20;99.90;;;;;;5022468;28;20045;-67
2023/12/16 00:35:08;;;;;;;5.45;1.52;;;7.20;99.90;;;;;;5024374;28;20038;-67
2023/12/16 00:37:34;;;;;;;5.90;1.35;;;7.20;99.90;;;;;;5021277;28;20046;-67
2023/12/16 00:40:01;;;;;;;6.43;0.98;;;7.20;99.90;;;;;;5020233;28;20121;-67
2023/12/16 00:42:27;;;;;;;6.68;1.40;;;7.20;99.90;;;;;;5021022;28;20045;-66
2023/12/16 00:44:53;;;;;;;4.72;0.98;;;7.20;99.90;;;;;;5022788;28;20108;-67
2023/12/16 00:47:18;;;;;;;7.65;1.52;;;7.10;99.90;;;;;;5021623;28;20132;-66
2023/12/16 00:49:44;;;;;;;9.32;1.45;;;7.20;99.90;;;;;;5022184;28;20443;-67
2023/12/16 00:52:10;;;;;;;5.18;1.10;;;7.20;99.90;;;;;;5035608;28;21641;-67
2023/12/16 00:54:35;;;;;;;3.25;0.90;;;7.20;99.90;;;;;;5023575;28;20536;-67
2023/12/16 00:57:01;;;;;;;6.43;1.20;;;7.10;99.90;;;;;;5020124;28;20484;-67
2023/12/16 00:59:26;;;;;;;9.30;1.48;;;7.20;99.90;;;;;;5019301;28;20124;-67
2023/12/16 01:01:52;;;;;;;8.57;1.88;;;7.10;99.90;;;;;;5022410;28;20030;-67
2023/12/16 01:04:18;;;;;;;5.53;1.42;;;7.10;99.90;;;;;;5021554;28;20049;-67
2023/12/16 01:06:44;;;;;;;8.50;1.50;;;7.10;99.90;;;;;;5023036;28;20084;-67
2023/12/16 01:09:10;;;;;;;12.88;1.45;;;7.00;99.90;;;;;;5020229;28;20041;-67
2023/12/16 01:11:36;;;;;;;6.50;1.15;;;7.00;99.90;;;;;;5019909;28;20041;-67
2023/12/16 01:14:02;;;;;;;6.18;1.10;;;6.90;99.90;;;;;;5019118;28;20054;-66
2023/12/16 01:16:28;;;;;;;6.90;1.38;;;6.90;99.90;;;;;;5020399;28;20075;-67
2023/12/16 01:18:54;;;;;;;7.32;1.20;;;7.20;99.90;;;;;;5022762;28;20045;-66
2023/12/16 01:21:19;;;;;;;6.80;2.38;;;6.80;99.90;;;;;;5021143;28;20081;-66
2023/12/16 01:23:45;;;;;;;5.68;1.67;;;6.80;99.90;;;;;;5020127;28;20069;-66
2023/12/16 01:26:11;;;;;;;6.90;1.40;;;6.70;99.90;;;;;;5024662;28;20140;-66
2023/12/16 01:28:38;;;;;;;8.55;1.67;;;6.70;99.90;;;;;;5022579;28;20650;-66
2023/12/16 01:31:04;;;;;;;8.95;1.60;;;6.60;99.90;;;;;;5022032;28;20619;-67
2023/12/16 01:33:29;;;;;;;7.10;1.50;;;6.60;99.90;;;;;;5025594;28;20049;-66
2023/12/16 01:35:55;;;;;;;8.18;1.55;;;6.50;99.90;;;;;;5028415;28;20120;-66
2023/12/16 01:38:22;;;;;;;9.30;2.53;;;6.50;99.90;;;;;;5012131;28;20042;-66
2023/12/16 01:40:47;;;;;;;8.50;1.58;;;6.40;99.90;;;;;;5023649;28;20041;-66
2023/12/16 01:43:13;;;;;;;7.93;1.67;;;6.40;99.90;;;;;;5027274;28;20045;-66
2023/12/16 01:45:39;;;;;;;14.45;2.13;;;6.30;99.90;;;;;;5025481;28;20397;-67
2023/12/16 01:48:06;;;;;;;6.65;1.85;;;6.40;99.90;;;;;;5025863;28;20041;-67
2023/12/16 01:50:33;;;;;;;6.28;1.70;;;6.30;99.90;;;;;;5023595;28;20045;-66
2023/12/16 01:53:00;;;;;;;11.60;1.92;;;6.30;99.90;;;;;;5022278;28;20045;-67
2023/12/16 01:55:26;;;;;;;6.60;1.50;;;6.30;99.90;;;;;;5028133;28;20056;-66
2023/12/16 01:57:53;;;;;;;12.73;1.75;;;6.30;99.90;;;;;;5024820;28;20109;-66
2023/12/16 02:00:22;;;;;;;7.75;2.03;;;6.30;99.90;;;;;;5022750;28;20497;-67
2023/12/16 02:02:48;;;;;;;10.80;1.80;;;6.30;99.90;;;;;;5024544;28;20092;-67
2023/12/16 02:05:13;;;;;;;13.07;2.53;;;6.30;99.90;;;;;;5026185;28;20033;-67
2023/12/16 02:07:39;;;;;;;12.70;2.58;;;6.20;99.90;;;;;;5020196;28;20041;-66
2023/12/16 02:10:05;;;;;;;10.48;2.25;;;6.20;99.90;;;;;;5024512;28;20487;-66
2023/12/16 02:12:34;;;;;;;9.25;2.40;;;6.30;99.90;;;;;;5024558;28;20053;-67
2023/12/16 02:15:00;;;;;;;15.57;2.90;;;6.30;99.90;;;;;;5025758;28;20037;-67
2023/12/16 02:17:26;;;;;;;11.48;2.03;;;6.20;99.90;;;;;;5024328;28;20045;-67
2023/12/16 02:19:54;;;;;;;9.27;2.33;;;6.20;99.90;;;;;;5025931;28;20037;-67
2023/12/16 02:22:23;;;;;;;7.90;1.48;;;6.20;99.90;;;;;;5023673;28;20045;-67
2023/12/16 02:24:50;;;;;;;6.97;1.50;;;6.20;99.90;;;;;;5024780;28;20081;-66
2023/12/16 02:27:16;;;;;;;12.32;2.20;;;6.20;99.90;;;;;;5022565;28;20128;-67
2023/12/16 02:29:42;;;;;;;12.43;1.83;;;6.20;99.90;;;;;;5020926;28;20041;-67
2023/12/16 02:32:07;;;;;;;11.10;1.90;;;6.20;99.90;;;;;;5022959;28;20049;-66
2023/12/16 02:34:33;;;;;;;8.50;1.70;;;6.20;99.90;;;;;;5026619;28;20065;-66
2023/12/16 02:37:02;;;;;;;6.97;1.45;;;6.20;99.90;;;;;;5026856;28;20100;-67
2023/12/16 02:39:28;;;;;;;13.98;1.90;;;6.20;99.90;;;;;;5022525;28;20042;-67
2023/12/16 02:41:53;;;;;;;12.73;2.05;;;6.20;99.90;;;;;;5027600;28;20040;-66
2023/12/16 02:44:19;;;;;;;11.25;2.50;;;6.20;99.90;;;;;;5023834;28;20080;-66
2023/12/16 02:46:44;;;;;;;11.88;1.70;;;6.20;99.90;;;;;;5021448;28;20488;-66
2023/12/16 02:49:10;;;;;;;9.93;1.92;;;6.10;99.90;;;;;;5025727;28;20045;-66
2023/12/16 02:51:36;;;;;;;10.90;1.70;;;6.20;99.90;;;;;;5021865;28;20659;-66
2023/12/16 02:54:01;;;;;;;8.50;2.53;;;6.10;99.90;;;;;;5024405;28;20068;-66
2023/12/16 02:56:27;;;;;;;9.90;2.10;;;6.20;99.90;;;;;;5024503;28;20034;-66
2023/12/16 02:58:53;;;;;;;11.18;1.67;;;6.20;99.90;;;;;;5007922;28;20092;-66
2023/12/16 03:01:18;;;;;;;9.35;1.75;;;6.20;99.90;;;;;;5023877;28;21675;-66
2023/12/16 03:03:44;;;;;;;10.93;1.67;;;6.20;99.90;;;;;;5024974;28;20464;-67
2023/12/16 03:06:09;;;;;;;13.57;3.40;;;6.10;99.90;;;;;;5023556;28;20088;-67
2023/12/16 03:08:36;;;;;;;9.70;1.92;;;6.10;99.90;;;;;;5024385;28;20099;-66
2023/12/16 03:11:02;;;;;;;11.38;2.08;;;6.10;99.90;;;;;;5027065;28;20044;-66
2023/12/16 03:13:28;;;;;;;7.97;1.80;;;6.10;99.90;;;;;;5036937;28;20049;-66
2023/12/16 03:15:54;;;;;;;11.55;2.33;;;6.00;99.90;;;;;;5026977;28;20379;-66
2023/12/16 03:18:20;;;;;;;11.13;1.98;;;6.10;99.90;;;;;;5021117;28;20046;-66
2023/12/16 03:20:45;;;;;;;9.85;1.52;;;6.10;99.90;;;;;;5022644;28;20034;-66
2023/12/16 03:23:11;;;;;;;10.60;2.45;;;6.10;99.90;;;;;;5022311;28;20492;-66
2023/12/16 03:25:42;;;;;;;11.73;1.85;;;6.10;99.90;;;;;;5022988;28;20043;-66
2023/12/16 03:28:08;;;;;;;9.80;1.80;;;6.10;99.90;;;;;;5023674;28;20042;-66
2023/12/16 03:30:34;;;;;;;13.15;1.90;;;6.00;99.90;;;;;;5020543;28;20056;-66
2023/12/16 03:33:00;;;;;;;8.77;2.25;;;6.00;99.90;;;;;;5024495;28;20042;-66
2023/12/16 03:35:25;;;;;;;12.00;1.98;;;6.00;99.90;;;;;;5022866;28;20041;-66
2023/12/16 03:37:51;;;;;;;12.23;1.77;;;6.00;99.90;;;;;;5021065;28;20048;-66
2023/12/16 03:40:16;;;;;;;15.25;2.85;;;6.00;99.90;;;;;;5024331;28;20033;-66
2023/12/16 03:42:42;;;;;;;11.27;2.10;;;6.00;99.90;;;;;;5026286;28;20099;-66
2023/12/16 03:45:08;;;;;;;12.13;2.10;;;6.00;99.90;;;;;;5024593;28;20045;-66
2023/12/16 03:47:35;;;;;;;6.57;1.52;;;6.00;99.90;;;;;;5023098;28;20554;-66
2023/12/16 03:50:00;;;;;;;13.75;2.20;;;6.00;99.90;;;;;;5023871;28;20033;-66
2023/12/16 03:52:26;;;;;;;14.07;2.50;;;5.90;99.90;;;;;;5021521;28;20045;-67
2023/12/16 03:54:52;;;;;;;10.05;1.92;;;5.90;99.90;;;;;;5019387;28;20061;-66
2023/12/16 03:57:17;;;;;;;13.07;2.50;;;5.90;99.90;;;;;;5020857;28;20061;-66
2023/12/16 03:59:43;;;;;;;10.48;1.92;;;5.90;99.90;;;;;;5019732;28;20116;-66
2023/12/16 04:02:09;;;;;;;11.63;2.20;;;5.90;99.90;;;;;;5020106;28;20046;-66
2023/12/16 04:04:35;;;;;;;12.63;1.70;;;5.90;99.90;;;;;;5023691;28;20044;-66
2023/12/16 04:07:01;;;;;;;9.55;2.75;;;5.90;99.90;;;;;;5020865;28;20041;-66
2023/12/16 04:09:30;;;;;;;8.80;2.00;;;5.90;99.90;;;;;;5019348;28;20046;-66
2023/12/16 04:11:59;;;;;;;9.75;1.90;;;5.90;99.90;;;;;;5025124;28;20133;-66
2023/12/16 04:14:25;;;;;;;9.75;1.95;;;5.90;99.90;;;;;;5021345;28;20038;-67
2023/12/16 04:16:51;;;;;;;7.10;1.73;;;5.80;99.90;;;;;;5024406;28;20041;-67
2023/12/16 04:19:16;;;;;;;7.22;2.00;;;5.90;99.90;;;;;;5021487;28;20381;-66
2023/12/16 04:21:42;;;;;;;13.23;2.83;;;5.90;99.90;;;;;;5024230;28;20034;-67
2023/12/16 04:24:07;;;;;;;15.00;2.53;;;5.90;99.90;;;;;;5018353;28;20041;-67
2023/12/16 04:26:35;;;;;;;13.23;2.33;;;5.90;99.90;;;;;;5019304;28;20516;-67
2023/12/16 04:29:01;;;;;;;13.40;2.03;;;5.90;99.90;;;;;;5020653;28;20484;-67
2023/12/16 04:31:26;;;;;;;10.48;2.50;;;5.90;99.90;;;;;;5026134;28;20041;-67
2023/12/16 04:33:54;;;;;;;16.67;2.50;;;5.80;99.90;;;;;;5024819;28;20044;-67
2023/12/16 04:36:19;;;;;;;16.45;2.28;;;5.80;99.90;;;;;;5020837;28;20460;-67
2023/12/16 04:38:45;;;;;;;13.32;2.25;;;5.90;99.90;;;;;;5020533;28;20049;-67
2023/12/16 04:41:12;;;;;;;8.65;2.30;;;5.90;99.90;;;;;;5022810;28;20080;-67
2023/12/16 04:43:38;;;;;;;9.00;1.80;;;5.90;99.90;;;;;;5022519;28;20045;-67
2023/12/16 04:46:03;;;;;;;14.35;2.65;;;5.90;99.90;;;;;;5020760;28;20091;-67
2023/12/16 04:48:29;;;;;;;15.38;2.58;;;5.90;99.90;;;;;;5022941;28;20084;-67
2023/12/16 04:50:54;;;;;;;10.55;2.10;;;5.90;99.90;;;;;;5024007;28;20048;-66
2023/12/16 04:53:20;;;;;;;10.95;1.55;;;5.90;99.90;;;;;;5022221;28;20518;-66
2023/12/16 04:55:46;;;;;;;13.00;1.90;;;5.90;99.90;;;;;;5024165;28;20029;-66
2023/12/16 04:58:11;;;;;;;12.10;2.00;;;5.90;99.90;;;;;;5024381;28;20396;-66
2023/12/16 05:00:37;;;;;;;12.73;2.40;;;5.80;99.90;;;;;;5022925;28;20046;-66
2023/12/16 05:03:03;;;;;;;13.25;2.90;;;5.90;99.90;;;;;;5022105;28;20163;-67
2023/12/16 05:05:29;;;;;;;16.20;2.20;;;5.90;99.90;;;;;;5021064;28;20365;-66
2023/12/16 05:07:54;;;;;;;12.27;2.67;;;5.90;99.90;;;;;;5029888;28;20156;-66
2023/12/16 05:10:20;;;;;;;11.63;2.05;;;5.90;99.90;;;;;;5023240;28;20079;-67
2023/12/16 05:12:46;;;;;;;14.43;2.97;;;5.90;99.90;;;;;;5023828;28;20385;-67
2023/12/16 05:15:11;;;;;;;15.30;2.28;;;5.90;99.90;;;;;;5024698;28;20042;-67
2023/12/16 05:17:37;;;;;;;21.70;2.72;;;6.10;99.90;;;;;;5024276;28;20428;-67
2023/12/16 05:20:03;;;;;;;11.63;2.13;;;5.90;99.90;;;;;;5023874;28;20443;-66
2023/12/16 05:22:33;;;;;;;10.07;2.00;;;5.90;99.90;;;;;;5026133;28;20037;-66
2023/12/16 05:25:00;;;;;;;13.27;2.35;;;5.90;99.90;;;;;;5026797;28;20049;-66
2023/12/16 05:27:27;;;;;;;15.60;3.67;;;5.90;99.90;;;;;;5029833;28;20090;-66
2023/12/16 05:29:52;;;;;;;13.57;2.25;;;5.90;99.90;;;;;;5027910;28;20558;-67
2023/12/16 05:32:18;;;;;;;14.88;2.50;;;5.90;99.90;;;;;;5027490;28;20132;-66
2023/12/16 05:34:44;;;;;;;11.18;2.20;;;5.90;99.90;;;;;;5028476;28;20046;-67
2023/12/16 05:37:09;;;;;;;12.63;2.50;;;5.80;99.90;;;;;;5025608;28;20033;-67
2023/12/16 05:39:35;;;;;;;11.60;2.50;;;5.80;99.90;;;;;;5022005;28;20080;-67
2023/12/16 05:42:00;;;;;;;15.32;2.97;;;5.80;99.90;;;;;;5025166;28;20038;-67
2023/12/16 05:44:26;;;;;;;13.80;3.30;;;5.80;99.90;;;;;;5027242;28;20087;-67
2023/12/16 05:46:52;;;;;;;13.50;2.45;;;5.70;99.90;;;;;;5022500;28;20095;-67
2023/12/16 05:49:17;;;;;;;20.30;2.50;;;5.70;99.90;;;;;;5024689;28;20088;-67
2023/12/16 05:51:43;;;;;;;15.43;2.67;;;5.80;99.90;;;;;;5024254;28;20407;-67
2023/12/16 05:54:09;;;;;;;16.83;3.97;;;5.70;99.90;;;;;;5027555;28;20045;-67
2023/12/16 05:56:34;;;;;;;15.30;2.60;;;5.70;99.90;;;;;;5024988;28;20045;-67
2023/12/16 05:59:00;;;;;;;15.05;3.63;;;5.80;99.90;;;;;;5022846;28;20392;-67
2023/12/16 06:01:26;;;;;;;21.60;3.78;;;5.70;99.90;;;;;;5024581;28;20042;-66
2023/12/16 06:03:52;;;;;;;10.30;3.72;;;5.80;99.90;;;;;;5024596;28;20046;-66
2023/12/16 06:06:18;;;;;;;15.52;3.05;;;5.80;99.90;;;;;;5024061;28;20476;-66
2023/12/16 06:08:44;;;;;;;19.40;3.45;;;5.80;99.90;;;;;;5022072;28;20050;-67
2023/12/16 06:11:13;;;;;;;14.88;3.05;;;5.90;99.90;;;;;;5023931;28;20132;-67
2023/12/16 06:13:39;;;;;;;10.13;2.97;;;5.80;99.90;;;;;;5024204;28;20480;-67
2023/12/16 06:16:09;;;;;;;17.00;3.55;;;5.90;99.90;;;;;;5024104;28;20053;-67
2023/12/16 06:18:35;;;;;;;21.67;4.47;;;5.90;99.90;;;;;;5021873;28;20060;-66
2023/12/16 06:21:00;;;;;;;17.95;3.95;;;5.90;99.90;;;;;;5025677;28;20033;-66
2023/12/16 06:23:26;;;;;;;18.17;4.03;;;5.90;99.90;;;;;;5040840;28;20495;-66
2023/12/16 06:25:52;;;;;;;20.52;4.32;;;5.90;99.90;;;;;;5026058;28;20056;-66
2023/12/16 06:28:18;;;;;;;19.30;4.13;;;5.90;99.90;;;;;;5024304;28;20391;-67
2023/12/16 06:30:44;;;;;;;18.10;4.65;;;6.00;99.90;;;;;;5022292;28;20116;-66
2023/12/16 06:33:10;;;;;;;16.10;3.95;;;6.00;99.90;;;;;;5022137;28;20058;-67
2023/12/16 06:35:35;;;;;;;18.98;4.43;;;6.00;99.90;;;;;;5028146;28;20088;-66
2023/12/16 06:38:01;;;;;;;17.05;5.20;;;6.10;99.90;;;;;;5041048;28;20117;-66
2023/12/16 06:40:27;;;;;;;18.77;4.60;;;6.00;99.90;;;;;;5022360;28;20041;-67
2023/12/16 06:42:54;;;;;;;22.67;4.38;;;6.10;99.90;;;;;;5023861;28;20049;-67
2023/12/16 06:45:19;;;;;;;17.90;4.57;;;6.10;99.90;;;;;;5022958;28;20048;-67
2023/12/16 06:47:45;;;;;;;16.35;4.68;;;6.10;99.90;;;;;;5024074;28;20391;-66
2023/12/16 06:50:11;;;;;;;21.55;5.72;;;6.20;99.90;;;;;;5023989;28;20057;-66
2023/12/16 06:52:36;;;;;;;19.33;4.90;;;6.20;99.90;;;;;;5022521;28;20045;-67
2023/12/16 06:55:02;;;;;;;17.83;4.90;;;6.20;99.90;;;;;;5022485;28;20057;-67
2023/12/16 06:57:28;;;;;;;15.48;4.85;;;6.20;99.90;;;;;;5022739;28;20557;-67
2023/12/16 06:59:54;;;;;;;18.10;4.78;;;6.20;99.90;;;;;;5021785;28;20045;-66
2023/12/16 07:02:20;;;;;;;27.42;5.43;;;6.20;99.90;;;;;;5023500;28;20499;-66
2023/12/16 07:04:45;;;;;;;21.38;4.88;;;6.30;99.90;;;;;;5026522;28;20041;-66
2023/12/16 07:07:11;;;;;;;18.40;4.47;;;6.30;99.90;;;;;;5021378;28;20042;-67
2023/12/16 07:09:38;;;;;;;23.67;5.35;;;6.30;99.90;;;;;;5021405;28;20052;-66
2023/12/16 07:12:05;;;;;;;20.90;4.07;;;6.30;99.90;;;;;;5023839;28;20025;-67
2023/12/16 07:14:30;;;;;;;18.27;5.05;;;6.30;99.90;;;;;;5019895;28;20583;-67
2023/12/16 07:16:56;;;;;;;18.75;5.03;;;6.30;99.90;;;;;;5024353;28;20140;-67
2023/12/16 07:19:21;;;;;;;19.27;5.00;;;6.30;99.90;;;;;;5025381;28;20091;-67
2023/12/16 07:21:47;;;;;;;18.10;4.65;;;6.30;99.90;;;;;;5023043;28;20087;-67
2023/12/16 07:24:13;;;;;;;19.67;4.80;;;6.30;99.90;;;;;;5020949;28;20041;-67
2023/12/16 07:26:38;;;;;;;21.42;5.05;;;6.40;99.90;;;;;;5022349;28;20033;-66
2023/12/16 07:29:04;;;;;;;28.95;5.35;;;6.40;99.90;;;;;;5021452;28;20133;-67
2023/12/16 07:31:29;;;;;;;20.05;5.18;;;6.40;99.90;;;;;;5025236;28;20047;-67
2023/12/16 07:33:56;;;;;;;24.65;6.07;;;6.40;99.90;;;;;;5022711;28;20103;-67
2023/12/16 07:36:21;;;;;;;24.27;6.07;;;6.40;99.90;;;;;;5019364;28;20898;-67
2023/12/16 07:38:47;;;;;;;18.67;4.65;;;6.40;99.90;;;;;;5022723;28;20044;-67
2023/12/16 07:41:13;;;;;;;19.77;5.15;;;6.40;99.90;;;;;;5022459;28;20460;-67
2023/12/16 07:43:42;;;;;;;20.15;5.28;;;6.40;99.90;;;;;;5016176;28;20044;-67
2023/12/16 07:46:08;;;;;;;25.08;6.45;;;6.50;99.90;;;;;;5022164;28;20048;-67
2023/12/16 07:48:33;;;;;;;21.73;5.95;;;6.40;99.90;;;;;;5016304;28;20045;-66
2023/12/16 07:50:59;;;;;;;26.58;5.78;;;6.50;99.90;;;;;;5014516;28;20064;-66
2023/12/16 07:53:25;;;;;;;16.65;5.25;;;6.40;99.90;;;;;;5020896;28;20045;-66
2023/12/16 07:55:51;;;;;;;20.40;5.55;;;6.50;99.90;;;;;;5023478;28;20041;-66
2023/12/16 07:58:16;;;;;;;15.30;5.10;;;6.40;99.90;;;;;;5023313;28;20038;-66
2023/12/16 08:00:43;;;;;;;26.55;4.50;;;6.50;99.90;;;;;;5018542;28;21543;-66
2023/12/16 08:03:09;;;;;;;21.67;5.65;;;6.50;99.90;;;;;;5022684;28;20164;-66
2023/12/16 08:05:34;;;;;;;15.52;5.28;;;6.60;99.90;;;;;;5017501;28;20132;-66
2023/12/16 08:08:00;;;;;;;18.33;4.78;;;6.60;99.90;;;;;;5017156;28;20599;-66
2023/12/16 08:10:25;;;;;;;21.75;5.00;;;6.60;99.90;;;;;;5017580;28;20033;-66
2023/12/16 08:12:52;;;;;;;19.05;6.60;;;6.70;99.90;;;;;;5017584;28;20041;-66
2023/12/16 08:15:18;;;;;;;18.02;4.90;;;6.70;99.90;;;;;;5020053;28;20490;-66
2023/12/16 08:17:43;;;;;;;18.35;5.10;;;6.70;99.90;;;;;;5018517;28;20030;-67
2023/12/16 08:20:09;;;;;;;18.17;5.32;;;6.70;99.90;;;;;;5018082;28;20488;-66
2023/12/16 08:22:35;;;;;;;19.85;5.05;;;6.70;99.90;;;;;;5020444;28;20084;-66
2023/12/16 08:25:01;;;;;;;24.23;5.28;;;6.80;99.90;;;;;;5024276;28;20049;-67
2023/12/16 08:27:27;;;;;;;26.17;6.63;;;6.80;99.90;;;;;;5022011;28;20108;-66
2023/12/16 08:29:53;;;;;;;31.33;6.38;;;6.80;99.90;;;;;;5020826;28;20029;-66
2023/12/16 08:32:18;;;;;;;16.67;6.15;;;6.80;99.90;;;;;;5020516;28;20037;-66
2023/12/16 08:34:44;;;;;;;19.08;5.65;;;6.80;99.90;;;;;;5020537;28;20044;-66
2023/12/16 08:37:10;;;;;;;30.17;5.68;;;6.80;99.90;;;;;;5023112;28;20093;-66
2023/12/16 08:39:36;;;;;;;26.80;7.07;;;6.90;99.90;;;;;;5022593;28;20095;-66
2023/12/16 08:42:01;;;;;;;26.05;6.28;;;6.80;99.90;;;;;;5023696;28;20415;-66
2023/12/16 08:44:27;;;;;;;27.25;7.00;;;6.90;99.90;;;;;;5023603;28;20460;-66
2023/12/16 08:46:53;;;;;;;22.90;6.25;;;6.90;99.90;;;;;;5025831;28;20037;-66
2023/12/16 08:49:18;;;;;;;19.67;6.75;;;6.90;99.90;;;;;;5019726;28;20038;-66
2023/12/16 08:51:45;;;;;;;23.17;5.13;;;7.20;99.90;;;;;;5023328;28;20137;-66
2023/12/16 08:54:11;;;;;;;22.88;6.15;;;6.90;99.90;;;;;;5021158;28;20041;-66
2023/12/16 08:56:36;;;;;;;21.05;5.60;;;7.00;99.90;;;;;;5017535;28;20040;-66
2023/12/16 08:59:02;;;;;;;25.10;5.75;;;7.00;99.90;;;;;;5023269;28;20058;-67
2023/12/16 09:01:28;;;;;;;24.63;5.85;;;7.00;99.90;;;;;;5017178;28;20038;-66
2023/12/16 09:03:53;;;;;;;22.17;5.60;;;7.10;99.90;;;;;;5024895;28;20045;-68
2023/12/16 09:06:20;;;;;;;19.52;5.25;;;7.10;99.90;;;;;;5024036;28;20040;-66
2023/12/16 09:08:46;;;;;;;22.65;6.28;;;7.10;99.90;;;;;;5020627;28;20049;-66
2023/12/16 09:11:12;;;;;;;25.17;6.47;;;7.20;99.90;;;;;;5018117;28;20522;-66
2023/12/16 09:13:38;;;;;;;20.75;5.65;;;7.20;99.90;;;;;;5023518;28;20037;-66
2023/12/16 09:16:04;;;;;;;24.75;5.82;;;7.20;99.90;;;;;;5023113;28;20033;-66
2023/12/16 09:18:30;;;;;;;27.15;6.25;;;7.20;99.90;;;;;;5016324;28;20092;-66
2023/12/16 09:20:55;;;;;;;28.45;7.13;;;7.20;99.90;;;;;;5016605;28;20046;-66
2023/12/16 09:23:21;;;;;;;25.20;6.63;;;7.20;99.90;;;;;;5018143;28;20069;-65
2023/12/16 09:25:47;;;;;;;22.25;5.63;;;7.20;99.90;;;;;;5020576;28;20221;-66
2023/12/16 09:28:12;;;;;;;23.48;5.82;;;7.30;99.90;;;;;;5007903;28;20041;-66
2023/12/16 09:30:38;;;;;;;19.70;5.88;;;7.30;99.90;;;;;;5017228;28;20046;-66
2023/12/16 09:33:04;;;;;;;23.02;5.68;;;7.30;99.90;;;;;;5021084;28;20042;-66
2023/12/16 09:35:30;;;;;;;22.42;5.88;;;7.30;99.90;;;;;;5018180;28;20112;-66
2023/12/16 09:37:55;;;;;;;24.48;6.10;;;7.30;99.90;;;;;;5017805;28;20055;-66
2023/12/16 09:40:21;;;;;;;21.65;6.03;;;7.30;99.90;;;;;;5014227;28;20469;-66
2023/12/16 09:42:51;;;;;;;24.65;6.10;;;7.30;99.90;;;;;;5020592;28;20090;-66
2023/12/16 09:45:17;;;;;;;28.92;7.40;;;7.30;99.90;;;;;;5021104;28;20046;-66
2023/12/16 09:47:45;;;;;;;25.45;6.07;;;7.30;99.90;;;;;;5023050;28;20049;-66
2023/12/16 09:50:11;;;;;;;24.35;5.90;;;7.30;99.90;;;;;;5016350;28;20042;-66
2023/12/16 09:52:40;;;;;;;34.35;6.15;;;7.30;99.90;;;;;;5021416;28;20164;-66
2023/12/16 09:55:06;;;;;;;31.92;6.35;;;7.40;99.90;;;;;;5025178;28;20089;-66
2023/12/16 09:57:35;;;;;;;29.80;5.70;;;7.30;99.90;;;;;;5024712;28;20048;-66
2023/12/16 10:00:01;;;;;;;31.45;7.80;;;7.40;99.90;;;;;;5022706;28;20042;-66
2023/12/16 10:02:27;;;;;;;34.45;7.18;;;7.40;99.90;;;;;;5024879;28;20128;-65
2023/12/16 10:04:58;;;;;;;27.80;7.03;;;7.40;99.90;;;;;;5027156;28;20132;-66
2023/12/16 10:07:25;;;;;;;27.65;6.25;;;7.40;99.90;;;;;;5025274;28;20093;-66
2023/12/16 10:09:51;;;;;;;28.80;6.85;;;7.40;99.90;;;;;;5025905;28;20041;-66
2023/12/16 10:12:19;;;;;;;28.83;6.68;;;7.30;99.90;;;;;;5025626;28;20495;-66
2023/12/16 10:14:49;;;;;;;31.95;7.68;;;7.40;99.90;;;;;;5026076;28;20243;-66
2023/12/16 10:17:16;;;;;;;25.65;6.88;;;7.40;99.90;;;;;;5024363;28;20100;-66
2023/12/16 10:19:44;;;;;;;34.30;7.35;;;7.40;99.90;;;;;;5022219;28;20492;-66
2023/12/16 10:22:12;;;;;;;37.08;9.18;;;7.40;99.90;;;;;;5021206;28;20064;-66
2023/12/16 10:24:38;;;;;;;32.75;8.63;;;7.40;99.90;;;;;;5023250;28;20073;-66
2023/12/16 10:27:07;;;;;;;38.25;8.95;;;7.40;99.90;;;;;;5024431;28;20072;-66
2023/12/16 10:29:33;;;;;;;29.45;7.15;;;7.40;99.90;;;;;;5025465;28;20067;-66
2023/12/16 10:31:59;;;;;;;36.58;8.95;;;7.40;99.90;;;;;;5026339;28;20049;-66
2023/12/16 10:34:31;;;;;;;34.45;8.70;;;7.50;99.90;;;;;;5023392;28;20049;-66
2023/12/16 10:37:15;;;;;;;30.67;8.77;;;7.40;99.90;;;;;;5022459;28;20041;-66
2023/12/16 10:39:41;;;;;;;34.10;9.57;;;7.40;99.90;;;;;;5040730;28;20048;-66
2023/12/16 10:42:06;;;;;;;33.45;8.85;;;7.40;99.90;;;;;;5022335;28;20042;-66
2023/12/16 10:44:32;;;;;;;33.38;10.30;;;7.40;99.90;;;;;;5040398;28;20045;-66
2023/12/16 10:46:58;;;;;;;26.20;9.30;;;7.40;99.90;;;;;;5025575;28;20041;-66
2023/12/16 10:49:35;;;;;;;29.67;10.23;;;7.40;99.90;;;;;;5022660;28;20041;-66
2023/12/16 10:52:06;;;;;;;32.45;11.68;;;7.40;99.90;;;;;;5024611;28;20046;-66
2023/12/16 10:54:47;;;;;;;32.00;11.38;;;7.40;99.90;;;;;;5024456;28;20136;-66
2023/12/16 10:57:25;;;;;;;31.63;10.40;;;7.40;99.90;;;;;;5024227;28;20095;-66
2023/12/16 11:00:05;;;;;;;35.22;11.80;;;7.40;99.90;;;;;;5022488;28;20051;-66
2023/12/16 11:02:35;;;;;;;29.98;10.77;;;7.40;99.90;;;;;;5021779;28;20038;-66
2023/12/16 11:05:14;;;;;;;32.35;10.55;;;7.40;99.90;;;;;;5022888;28;20476;-66
2023/12/16 11:07:41;;;;;;;32.83;12.50;;;7.40;99.90;;;;;;5023377;28;20047;-66
2023/12/16 11:10:08;;;;;;;30.95;11.02;;;7.40;99.90;;;;;;5022444;28;20124;-66
2023/12/16 11:12:35;;;;;;;28.38;10.82;;;7.40;99.90;;;;;;5023795;28;20088;-66
2023/12/16 11:15:03;;;;;;;30.88;11.18;;;7.40;99.90;;;;;;5021459;28;20125;-66
2023/12/16 11:17:55;;;;;;;28.50;11.98;;;7.40;99.90;;;;;;5023607;28;20602;-66
2023/12/16 11:20:27;;;;;;;35.25;12.10;;;7.40;99.90;;;;;;5025623;28;20734;-66
2023/12/16 11:22:55;;;;;;;27.50;11.93;;;7.40;99.90;;;;;;5023701;28;20052;-66
2023/12/16 11:25:21;;;;;;;33.55;12.15;;;7.40;99.90;;;;;;5023080;28;20484;-66
2023/12/16 11:27:51;;;;;;;35.47;13.77;;;7.40;99.90;;;;;;5024428;28;20558;-66
2023/12/16 11:30:20;;;;;;;36.03;13.13;;;7.40;99.90;;;;;;5021237;28;20046;-66
2023/12/16 11:32:53;;;;;;;33.33;13.13;;;7.40;99.90;;;;;;5022672;28;20041;-66
2023/12/16 11:35:37;;;;;;;28.00;12.60;;;7.40;99.90;;;;;;5023610;28;20442;-66
2023/12/16 11:38:07;;;;;;;37.35;14.82;;;7.50;99.90;;;;;;5024635;28;20096;-66
2023/12/16 11:40:39;;;;;;;35.35;14.60;;;7.40;99.90;;;;;;5022621;28;20514;-66
2023/12/16 11:43:04;;;;;;;39.47;15.10;;;7.50;99.90;;;;;;5024543;28;20052;-66
2023/12/16 11:45:38;;;;;;;38.55;14.45;;;7.50;99.90;;;;;;5023017;28;20030;-66
2023/12/16 11:48:13;;;;;;;34.53;15.73;;;7.50;99.90;;;;;;5022099;28;20128;-66
2023/12/16 11:50:41;;;;;;;42.80;15.83;;;7.50;99.90;;;;;;5018486;28;20048;-66
2023/12/16 11:53:11;;;;;;;38.55;16.00;;;7.60;99.90;;;;;;5022547;28;20588;-66
2023/12/16 11:55:37;;;;;;;44.63;15.80;;;7.60;99.90;;;;;;5022397;28;20042;-66
2023/12/16 11:58:03;;;;;;;37.95;15.35;;;7.60;99.90;;;;;;5017316;28;20044;-66
2023/12/16 12:00:30;;;;;;;41.10;15.52;;;7.60;99.90;;;;;;5032118;28;20120;-66
2023/12/16 12:02:59;;;;;;;46.20;17.70;;;7.60;99.90;;;;;;5021827;28;20087;-66
2023/12/16 12:05:29;;;;;;;41.72;16.63;;;7.60;99.90;;;;;;5020474;28;20205;-66
2023/12/16 12:07:55;;;;;;;42.63;16.45;;;7.60;99.90;;;;;;5018615;28;20496;-66
2023/12/16 12:10:22;;;;;;;44.38;18.55;;;7.70;99.90;;;;;;5020702;28;20057;-66
2023/12/16 12:12:48;;;;;;;40.92;17.63;;;7.70;99.90;;;;;;5019991;28;20041;-66
2023/12/16 12:15:14;;;;;;;42.20;16.50;;;7.70;99.90;;;;;;5018844;28;20045;-66
2023/12/16 12:17:40;;;;;;;38.13;16.67;;;7.80;99.90;;;;;;5018076;28;20033;-66
2023/12/16 12:20:06;;;;;;;38.33;17.45;;;7.80;99.90;;;;;;5019023;28;20133;-66
2023/12/16 12:22:33;;;;;;;41.50;16.23;;;7.90;99.90;;;;;;5018758;28;20026;-66
2023/12/16 12:24:59;;;;;;;37.30;16.70;;;8.30;99.90;;;;;;5018452;28;20045;-66
2023/12/16 12:27:27;;;;;;;38.20;16.17;;;8.00;99.90;;;;;;5033892;28;20056;-66
2023/12/16 12:29:53;;;;;;;26.50;14.13;;;8.00;99.90;;;;;;5018803;28;20064;-66
2023/12/16 12:32:19;;;;;;;29.92;13.38;;;8.00;99.90;;;;;;5018203;28;20049;-66
2023/12/16 12:34:44;;;;;;;24.55;12.43;;;8.00;99.90;;;;;;5018317;28;20041;-66
2023/12/16 12:37:11;;;;;;;25.80;12.95;;;8.10;99.90;;;;;;5016414;28;20476;-66
2023/12/16 12:39:36;;;;;;;26.88;13.88;;;8.20;99.90;;;;;;5019921;28;20076;-66
2023/12/16 12:42:03;;;;;;;28.25;11.95;;;8.20;99.90;;;;;;5017934;28;20083;-66
2023/12/16 12:44:35;;;;;;;21.45;10.95;;;8.20;99.90;;;;;;5020291;28;20399;-66